createdAt,value
2023-03-13T00:00:06.507Z,99482.19
2023-03-13T00:02:51.681Z,99483.41
2023-03-13T00:05:37.987Z,99483.13
2023-03-13T00:08:23.695Z,99456.94
2023-03-13T00:11:11.370Z,99458.72
2023-03-13T00:13:58.351Z,99453.72
2023-03-13T00:16:43.746Z,99471.25
2023-03-13T00:19:28.949Z,99454.84
2023-03-13T00:22:14.235Z,99433.63
2023-03-13T00:24:59.608Z,99431.00
2023-03-13T00:27:44.998Z,99414.00
2023-03-13T00:30:30.310Z,99410.44
2023-03-13T00:33:15.274Z,99418.72
2023-03-13T00:36:01.909Z,99405.03
2023-03-13T00:38:46.897Z,99410.69
2023-03-13T00:41:33.366Z,99423.50
2023-03-13T00:44:18.794Z,99417.59
2023-03-13T00:47:05.373Z,99407.13
2023-03-13T00:49:50.460Z,99413.19
2023-03-13T00:52:35.598Z,99409.88
2023-03-13T00:55:20.885Z,99391.22
2023-03-13T00:58:06.128Z,99392.75
2023-03-13T01:00:51.901Z,99400.78
2023-03-13T01:03:38.343Z,99407.78
2023-03-13T01:06:26.123Z,99385.44
2023-03-13T01:09:14.605Z,99390.13
2023-03-13T01:11:59.763Z,99399.78
2023-03-13T01:14:44.678Z,99393.56
2023-03-13T01:17:30.670Z,99383.94
2023-03-13T01:20:16.365Z,99373.28
2023-03-13T01:23:01.455Z,99384.75
2023-03-13T01:25:46.486Z,99386.25
2023-03-13T01:28:32.087Z,99364.59
2023-03-13T01:31:20.252Z,99387.78
2023-03-13T01:34:06.649Z,99395.94
2023-03-13T01:36:52.402Z,99392.31
2023-03-13T01:39:37.830Z,99387.38
2023-03-13T01:42:22.974Z,99390.81
2023-03-13T01:45:46.404Z,99379.63
2023-03-13T01:48:40.491Z,99365.56
2023-03-13T01:51:33.081Z,99354.09
2023-03-13T01:54:21.234Z,99358.66
2023-03-13T01:57:37.609Z,99352.59
2023-03-13T02:00:26.940Z,99361.16
2023-03-13T02:03:17.800Z,99333.84
2023-03-13T02:06:05.416Z,99335.34
2023-03-13T02:08:56.858Z,99322.25
2023-03-13T02:12:02.927Z,99318.81
2023-03-13T02:14:50.577Z,99334.81
2023-03-13T02:17:36.876Z,99331.38
2023-03-13T02:20:22.878Z,99343.63
2023-03-13T02:23:27.685Z,99341.06
2023-03-13T02:26:13.474Z,99329.03
2023-03-13T02:28:58.897Z,99314.56
2023-03-13T02:31:48.136Z,99320.06
2023-03-13T02:34:35.601Z,99297.44
2023-03-13T02:37:21.907Z,99291.09
2023-03-13T02:40:10.952Z,99279.63
2023-03-13T02:42:59.874Z,99289.56
2023-03-13T02:46:08.030Z,99262.09
2023-03-13T02:48:55.990Z,99259.34
2023-03-13T02:51:45.932Z,99264.00
2023-03-13T02:54:35.530Z,99242.06
2023-03-13T02:57:20.922Z,99249.94
2023-03-13T03:00:07.795Z,99246.63
2023-03-13T03:02:56.352Z,99233.38
2023-03-13T03:05:41.887Z,99233.53
2023-03-13T03:08:26.999Z,99244.59
2023-03-13T03:11:12.662Z,99225.94
2023-03-13T03:13:57.709Z,99221.22
2023-03-13T03:16:43.648Z,99224.16
2023-03-13T03:19:28.855Z,99222.34
2023-03-13T03:22:14.314Z,99219.03
2023-03-13T03:24:59.323Z,99205.28
2023-03-13T03:27:44.317Z,99212.03
2023-03-13T03:30:29.465Z,99201.97
2023-03-13T03:33:14.362Z,99212.44
2023-03-13T03:36:01.396Z,99221.00
2023-03-13T03:38:47.697Z,99203.09
2023-03-13T03:41:32.641Z,99209.66
2023-03-13T03:44:17.651Z,99203.31
2023-03-13T03:47:02.938Z,99196.44
2023-03-13T03:49:48.377Z,99182.34
2023-03-13T03:52:33.551Z,99199.88
2023-03-13T03:55:19.420Z,99200.03
2023-03-13T03:58:04.507Z,99206.09
2023-03-13T04:00:49.739Z,99214.09
2023-03-13T04:03:35.142Z,99187.34
2023-03-13T04:06:20.405Z,99202.09
2023-03-13T04:09:05.549Z,99216.06
2023-03-13T04:11:50.677Z,99211.34
2023-03-13T04:14:35.949Z,99206.91
2023-03-13T04:17:21.210Z,99187.66
2023-03-13T04:20:07.728Z,99196.56
2023-03-13T04:22:52.783Z,99204.72
2023-03-13T04:25:38.345Z,99215.06
2023-03-13T04:28:23.627Z,99195.75
2023-03-13T04:31:09.052Z,99186.16
2023-03-13T04:33:54.358Z,99206.00
2023-03-13T04:36:39.986Z,99172.97
2023-03-13T04:39:25.453Z,99197.25
2023-03-13T04:42:11.829Z,99188.56
2023-03-13T04:44:56.908Z,99169.69
2023-03-13T04:47:41.977Z,99195.44
2023-03-13T04:50:27.028Z,99178.50
2023-03-13T04:53:12.197Z,99185.94
2023-03-13T04:55:57.145Z,99185.66
2023-03-13T04:58:42.266Z,99174.47
2023-03-13T05:01:27.615Z,99165.50
2023-03-13T05:04:13.032Z,99171.84
2023-03-13T05:06:58.222Z,99172.84
2023-03-13T05:09:43.203Z,99178.91
2023-03-13T05:12:28.156Z,99176.28
2023-03-13T05:15:13.131Z,99170.72
2023-03-13T05:17:58.426Z,99148.81
2023-03-13T05:20:43.706Z,99157.78
2023-03-13T05:23:28.819Z,99183.03
2023-03-13T05:26:14.019Z,99187.31
2023-03-13T05:28:59.023Z,99161.38
2023-03-13T05:31:44.231Z,99172.69
2023-03-13T05:34:29.568Z,99155.31
2023-03-13T05:37:14.851Z,99145.50
2023-03-13T05:40:00.060Z,99165.78
2023-03-13T05:42:45.723Z,99161.00
2023-03-13T05:45:30.735Z,99160.03
2023-03-13T05:48:15.969Z,99162.66
2023-03-13T05:51:01.011Z,99150.66
2023-03-13T05:53:46.174Z,99155.38
2023-03-13T05:56:31.561Z,99159.94
2023-03-13T05:59:16.739Z,99153.31
2023-03-13T06:02:02.105Z,99166.59
2023-03-13T06:04:47.921Z,99162.59
2023-03-13T06:07:33.205Z,99156.53
2023-03-13T06:10:18.561Z,99157.66
2023-03-13T06:13:18.743Z,99156.53
2023-03-13T06:16:05.276Z,99171.28
2023-03-13T06:18:51.223Z,99159.16
2023-03-13T06:21:36.208Z,99152.03
2023-03-13T06:24:21.147Z,99140.00
2023-03-13T06:27:07.575Z,99144.13
2023-03-13T06:29:52.918Z,99140.53
2023-03-13T06:32:38.275Z,99132.81
2023-03-13T06:35:23.604Z,99122.09
2023-03-13T06:38:09.828Z,99127.41
2023-03-13T06:40:55.260Z,99128.91
2023-03-13T06:43:40.865Z,99141.88
2023-03-13T06:46:26.334Z,99147.13
2023-03-13T06:49:11.496Z,99130.13
2023-03-13T06:51:59.515Z,99137.59
2023-03-13T06:54:44.689Z,99158.00
2023-03-13T06:57:29.644Z,99142.13
2023-03-13T07:00:14.753Z,99139.94
2023-03-13T07:03:00.052Z,99133.56
2023-03-13T07:05:45.223Z,99099.66
2023-03-13T07:08:30.453Z,99127.66
2023-03-13T07:11:15.795Z,99134.41
2023-03-13T07:14:15.800Z,99104.09
2023-03-13T07:17:02.136Z,99105.84
2023-03-13T07:19:47.272Z,99124.19
2023-03-13T07:22:32.716Z,99102.72
2023-03-13T07:25:18.025Z,99104.59
2023-03-13T07:28:03.050Z,99097.56
2023-03-13T07:30:48.367Z,99097.41
2023-03-13T07:33:34.087Z,99089.41
2023-03-13T07:36:19.270Z,99104.00
2023-03-13T07:39:04.777Z,99104.00
2023-03-13T07:41:50.235Z,99118.78
2023-03-13T07:44:35.495Z,99115.47
2023-03-13T07:47:20.511Z,99118.59
2023-03-13T07:50:06.780Z,99142.88
2023-03-13T07:52:52.273Z,99115.03
2023-03-13T07:55:37.838Z,99118.59
2023-03-13T07:58:24.588Z,99101.25
2023-03-13T08:01:12.477Z,99085.94
2023-03-13T08:04:01.121Z,99091.56
2023-03-13T08:06:46.397Z,99087.97
2023-03-13T08:09:33.298Z,99079.97
2023-03-13T08:12:18.517Z,99083.56
2023-03-13T08:15:03.764Z,99068.28
2023-03-13T08:17:49.510Z,99064.75
2023-03-13T08:20:34.836Z,99054.75
2023-03-13T08:23:20.068Z,99083.94
2023-03-13T08:26:18.582Z,99077.59
2023-03-13T08:29:09.606Z,99059.50
2023-03-13T08:31:55.720Z,99065.44
2023-03-13T08:34:40.978Z,99073.31
2023-03-13T08:37:26.036Z,99049.47
2023-03-13T08:40:11.949Z,99043.09
2023-03-13T08:42:57.351Z,99072.19
2023-03-13T08:45:42.526Z,99052.16
2023-03-13T08:48:27.689Z,99058.75
2023-03-13T08:51:15.269Z,99042.72
2023-03-13T08:54:01.752Z,99046.03
2023-03-13T08:56:46.826Z,99042.84
2023-03-13T08:59:32.009Z,99016.50
2023-03-13T09:02:20.112Z,99036.38
2023-03-13T09:05:06.195Z,99038.00
2023-03-13T09:07:51.412Z,99028.84
2023-03-13T09:10:36.600Z,99044.97
2023-03-13T09:13:21.666Z,99034.16
2023-03-13T09:16:09.466Z,99032.84
2023-03-13T09:18:56.286Z,99035.00
2023-03-13T09:21:41.477Z,99046.03
2023-03-13T09:24:27.105Z,99031.97
2023-03-13T09:27:12.283Z,99021.16
2023-03-13T09:29:57.227Z,99014.09
2023-03-13T09:32:42.283Z,99026.84
2023-03-13T09:35:27.650Z,99018.53
2023-03-13T09:38:13.015Z,99023.28
2023-03-13T09:41:14.877Z,99025.09
2023-03-13T09:44:03.225Z,99040.66
2023-03-13T09:47:06.045Z,99037.50
2023-03-13T09:50:04.966Z,99039.44
2023-03-13T09:52:59.394Z,99042.38
2023-03-13T09:55:45.905Z,99041.41
2023-03-13T09:58:33.280Z,99037.13
2023-03-13T10:01:23.640Z,99046.03
2023-03-13T10:04:25.182Z,99021.31
2023-03-13T10:07:13.923Z,99016.25
2023-03-13T10:10:01.466Z,99039.09
2023-03-13T10:12:49.333Z,99020.75
2023-03-13T10:15:44.961Z,99026.84
2023-03-13T10:18:30.067Z,99020.63
2023-03-13T10:21:21.493Z,98989.00
2023-03-13T10:24:25.381Z,99022.47
2023-03-13T10:27:11.708Z,99013.09
2023-03-13T10:29:56.762Z,99018.69
2023-03-13T10:32:42.141Z,99007.88
2023-03-13T10:35:34.860Z,99025.28
2023-03-13T10:38:23.432Z,99003.59
2023-03-13T10:41:19.531Z,98993.28
2023-03-13T10:44:08.310Z,99003.19
2023-03-13T10:47:00.551Z,99010.91
2023-03-13T10:49:55.292Z,98997.44
2023-03-13T10:52:40.513Z,98982.47
2023-03-13T10:55:26.437Z,98983.44
2023-03-13T10:58:20.243Z,98996.44
2023-03-13T11:01:40.466Z,98994.63
2023-03-13T11:04:35.019Z,98993.16
2023-03-13T11:07:22.423Z,98980.00
2023-03-13T11:10:13.539Z,98998.75
2023-03-13T11:12:59.273Z,98996.44
2023-03-13T11:15:58.161Z,98986.75
2023-03-13T11:19:02.282Z,98995.47
2023-03-13T11:22:09.139Z,98990.72
2023-03-13T11:25:29.733Z,98965.22
2023-03-13T11:28:33.767Z,99009.25
2023-03-13T11:31:24.907Z,98994.47
2023-03-13T11:34:27.997Z,98999.88
2023-03-13T11:37:15.399Z,98998.25
2023-03-13T11:40:31.850Z,99001.69
2023-03-13T11:43:25.834Z,98975.06
2023-03-13T11:46:38.308Z,98991.84
2023-03-13T11:49:50.933Z,98985.59
2023-03-13T11:52:48.168Z,99000.53
2023-03-13T11:56:06.119Z,98986.28
2023-03-13T11:59:07.632Z,99007.97
2023-03-13T12:02:23.957Z,98984.97
2023-03-13T12:05:13.680Z,98992.19
2023-03-13T12:08:07.431Z,99006.47
2023-03-13T12:11:07.152Z,98987.75
2023-03-13T12:13:57.649Z,98988.56
2023-03-13T12:16:52.548Z,98985.78
2023-03-13T12:19:43.617Z,98953.25
2023-03-13T12:22:51.950Z,98986.75
2023-03-13T12:25:54.366Z,98972.94
2023-03-13T12:29:32.349Z,98979.84
2023-03-13T12:32:34.486Z,98956.53
2023-03-13T12:35:33.396Z,98963.59
2023-03-13T12:38:41.281Z,98979.66
2023-03-13T12:41:33.044Z,98971.47
2023-03-13T12:44:20.533Z,98948.16
2023-03-13T12:47:30.495Z,98978.56
2023-03-13T12:50:57.561Z,98965.56
2023-03-13T12:54:11.315Z,98965.41
2023-03-13T12:57:47.232Z,98958.31
2023-03-13T13:00:37.067Z,98945.94
2023-03-13T13:03:43.652Z,98946.47
2023-03-13T13:06:51.564Z,98958.47
2023-03-13T13:09:42.002Z,98957.38
2023-03-13T13:12:27.138Z,98942.78
2023-03-13T13:15:29.828Z,98944.63
2023-03-13T13:18:32.397Z,98933.00
2023-03-13T13:21:26.586Z,98920.22
2023-03-13T13:24:41.071Z,98921.56
2023-03-13T13:27:32.296Z,98933.91
2023-03-13T13:30:17.194Z,98918.22
2023-03-13T13:33:21.467Z,98923.88
2023-03-13T13:36:09.578Z,98893.19
2023-03-13T13:38:56.487Z,98883.25
2023-03-13T13:41:41.971Z,98919.28
2023-03-13T13:44:29.623Z,98887.28
2023-03-13T13:47:25.348Z,98892.56
2023-03-13T13:50:25.724Z,98900.66
2023-03-13T13:53:31.622Z,98882.34
2023-03-13T13:56:28.999Z,98895.00
2023-03-13T13:59:20.613Z,98884.34
2023-03-13T14:02:10.440Z,98896.03
2023-03-13T14:05:08.060Z,98883.25
2023-03-13T14:07:55.686Z,98885.88
2023-03-13T14:10:45.740Z,98867.63
2023-03-13T14:13:31.230Z,98867.31
2023-03-13T14:16:26.294Z,98846.28
2023-03-13T14:19:43.035Z,98855.16
2023-03-13T14:22:46.205Z,98841.00
2023-03-13T14:26:11.988Z,98865.81
2023-03-13T14:29:00.101Z,98831.47
2023-03-13T14:31:52.046Z,98846.34
2023-03-13T14:34:37.201Z,98832.22
2023-03-13T14:37:52.489Z,98832.78
2023-03-13T14:40:39.290Z,98827.53
2023-03-13T14:43:41.934Z,98830.50
2023-03-13T14:46:31.773Z,98811.66
2023-03-13T14:49:17.385Z,98818.28
2023-03-13T14:52:04.810Z,98816.69
2023-03-13T14:55:02.164Z,98806.81
2023-03-13T14:58:03.571Z,98800.94
2023-03-13T15:00:49.220Z,98790.41
2023-03-13T15:03:34.417Z,98813.66
2023-03-13T15:06:22.809Z,98776.84
2023-03-13T15:09:21.235Z,98785.44
2023-03-13T15:12:06.396Z,98776.19
2023-03-13T15:14:53.046Z,98776.16
2023-03-13T15:17:38.342Z,98757.13
2023-03-13T15:20:23.649Z,98760.38
2023-03-13T15:23:14.520Z,98766.13
2023-03-13T15:25:59.627Z,98756.72
2023-03-13T15:28:44.660Z,98749.84
2023-03-13T15:31:30.327Z,98748.88
2023-03-13T15:34:16.284Z,98740.78
2023-03-13T15:37:01.548Z,98730.63
2023-03-13T15:39:46.805Z,98717.13
2023-03-13T15:42:32.105Z,98720.41
2023-03-13T15:45:17.532Z,98703.38
2023-03-13T15:48:11.791Z,98708.47
2023-03-13T15:50:59.925Z,98692.06
2023-03-13T15:53:46.223Z,98687.53
2023-03-13T15:56:36.502Z,98677.09
2023-03-13T15:59:21.529Z,98661.03
2023-03-13T16:02:15.098Z,98658.88
2023-03-13T16:05:00.406Z,98661.00
2023-03-13T16:07:45.868Z,98637.69
2023-03-13T16:10:32.198Z,98633.63
2023-03-13T16:13:18.270Z,98636.72
2023-03-13T16:16:17.099Z,98641.16
2023-03-13T16:19:04.280Z,98625.25
2023-03-13T16:21:50.577Z,98624.81
2023-03-13T16:24:36.028Z,98622.19
2023-03-13T16:27:21.445Z,98601.00
2023-03-13T16:30:15.798Z,98609.38
2023-03-13T16:33:01.294Z,98595.13
2023-03-13T16:35:46.256Z,98603.66
2023-03-13T16:38:31.569Z,98595.47
2023-03-13T16:41:19.023Z,98603.19
2023-03-13T16:44:04.165Z,98592.22
2023-03-13T16:47:04.448Z,98593.38
2023-03-13T16:49:50.846Z,98580.09
2023-03-13T16:52:36.118Z,98590.28
2023-03-13T16:55:24.727Z,98579.63
2023-03-13T16:58:12.641Z,98581.44
2023-03-13T17:01:06.409Z,98573.59
2023-03-13T17:03:52.184Z,98578.84
2023-03-13T17:06:39.966Z,98589.34
2023-03-13T17:09:25.330Z,98579.47
2023-03-13T17:12:10.374Z,98559.19
2023-03-13T17:14:55.683Z,98584.41
2023-03-13T17:17:41.362Z,98579.47
2023-03-13T17:20:28.858Z,98582.59
2023-03-13T17:23:14.220Z,98583.25
2023-03-13T17:25:59.435Z,98573.91
2023-03-13T17:28:45.774Z,98574.59
2023-03-13T17:31:37.123Z,98559.19
2023-03-13T17:34:23.613Z,98552.28
2023-03-13T17:37:17.690Z,98556.38
2023-03-13T17:40:04.193Z,98566.22
2023-03-13T17:42:49.866Z,98568.69
2023-03-13T17:45:36.832Z,98562.78
2023-03-13T17:48:21.895Z,98562.78
2023-03-13T17:51:14.352Z,98567.41
2023-03-13T17:54:00.482Z,98561.31
2023-03-13T17:56:46.119Z,98560.97
2023-03-13T17:59:31.243Z,98557.72
2023-03-13T18:02:17.442Z,98567.22
2023-03-13T18:05:02.837Z,98564.13
2023-03-13T18:07:48.973Z,98559.03
2023-03-13T18:10:34.227Z,98549.84
2023-03-13T18:13:19.547Z,98560.31
2023-03-13T18:16:16.372Z,98549.50
2023-03-13T18:19:01.894Z,98554.09
2023-03-13T18:21:49.071Z,98536.72
2023-03-13T18:24:34.037Z,98558.19
2023-03-13T18:27:21.813Z,98547.38
2023-03-13T18:30:15.602Z,98552.91
2023-03-13T18:33:01.242Z,98549.34
2023-03-13T18:35:46.557Z,98550.28
2023-03-13T18:38:32.320Z,98549.66
2023-03-13T18:41:19.690Z,98551.94
2023-03-13T18:44:05.053Z,98547.16
2023-03-13T18:46:52.067Z,98543.84
2023-03-13T18:49:38.406Z,98528.94
2023-03-13T18:52:23.654Z,98538.09
2023-03-13T18:55:09.009Z,98532.53
2023-03-13T18:57:55.301Z,98531.88
2023-03-13T19:00:40.758Z,98523.00
2023-03-13T19:03:25.931Z,98515.66
2023-03-13T19:06:19.088Z,98497.41
2023-03-13T19:09:41.081Z,98499.72
2023-03-13T19:12:20.704Z,98487.94
2023-03-13T19:15:07.092Z,98489.88
2023-03-13T19:17:52.958Z,98489.88
2023-03-13T19:20:38.140Z,98477.94
2023-03-13T19:23:23.189Z,98484.97
2023-03-13T19:26:32.121Z,98492.66
2023-03-13T19:29:22.525Z,98496.25
2023-03-13T19:32:12.458Z,98478.41
2023-03-13T19:34:57.928Z,98482.34
2023-03-13T19:37:43.160Z,98476.31
2023-03-13T19:40:28.850Z,98490.53
2023-03-13T19:43:13.966Z,98486.59
2023-03-13T19:45:59.330Z,98476.44
2023-03-13T19:48:44.853Z,98487.72
2023-03-13T19:51:30.913Z,98481.34
2023-03-13T19:54:16.299Z,98487.72
2023-03-13T19:57:01.220Z,98481.69
2023-03-13T19:59:46.183Z,98467.94
2023-03-13T20:02:31.238Z,98477.44
2023-03-13T20:05:16.923Z,98466.63
2023-03-13T20:08:02.238Z,98485.75
2023-03-13T20:10:47.586Z,98476.88
2023-03-13T20:13:32.861Z,98489.84
2023-03-13T20:16:18.822Z,98489.19
2023-03-13T20:19:04.918Z,98484.13
2023-03-13T20:21:50.168Z,98485.91
2023-03-13T20:24:35.746Z,98491.00
2023-03-13T20:27:20.976Z,98486.56
2023-03-13T20:30:07.125Z,98483.94
2023-03-13T20:32:59.149Z,98482.44
2023-03-13T20:35:44.512Z,98494.56
2023-03-13T20:38:29.995Z,98478.50
2023-03-13T20:41:21.120Z,98484.09
2023-03-13T20:44:06.500Z,98485.22
2023-03-13T20:46:51.832Z,98474.09
2023-03-13T20:49:37.028Z,98486.50
2023-03-13T20:52:22.220Z,98464.19
2023-03-13T20:55:07.803Z,98475.69
2023-03-13T20:57:52.873Z,98463.91
2023-03-13T21:00:38.383Z,98474.88
2023-03-13T21:03:23.776Z,98477.50
2023-03-13T21:06:17.782Z,98483.53
2023-03-13T21:09:03.235Z,98475.19
2023-03-13T21:11:48.482Z,98464.19
2023-03-13T21:14:35.049Z,98474.38
2023-03-13T21:17:20.844Z,98471.09
2023-03-13T21:20:13.862Z,98484.84
2023-03-13T21:22:58.688Z,98462.25
2023-03-13T21:25:43.925Z,98481.56
2023-03-13T21:28:29.812Z,98481.56
2023-03-13T21:31:17.897Z,98476.31
2023-03-13T21:34:03.205Z,98474.84
2023-03-13T21:36:48.239Z,98468.13
2023-03-13T21:39:33.528Z,98477.25
2023-03-13T21:42:19.205Z,98486.25
2023-03-13T21:45:06.547Z,98490.84
2023-03-13T21:47:51.737Z,98489.06
2023-03-13T21:50:36.686Z,98488.25
2023-03-13T21:53:21.797Z,98485.09
2023-03-13T21:56:07.957Z,98487.72
2023-03-13T21:58:52.931Z,98505.19
2023-03-13T22:01:38.970Z,98498.34
2023-03-13T22:04:24.352Z,98483.94
2023-03-13T22:07:10.144Z,98493.78
2023-03-13T22:09:55.424Z,98504.53
2023-03-13T22:12:40.616Z,98496.69
2023-03-13T22:15:25.874Z,98492.13
2023-03-13T22:18:10.859Z,98499.81
2023-03-13T22:21:00.161Z,98497.34
2023-03-13T22:23:45.963Z,98489.16
2023-03-13T22:26:31.185Z,98491.97
2023-03-13T22:29:16.686Z,98485.75
2023-03-13T22:32:02.391Z,98491.00
2023-03-13T22:34:48.113Z,98493.63
2023-03-13T22:37:33.353Z,98488.34
2023-03-13T22:40:20.203Z,98503.94
2023-03-13T22:43:05.156Z,98494.06
2023-03-13T22:45:50.607Z,98504.75
2023-03-13T22:48:36.257Z,98504.75
2023-03-13T22:51:21.644Z,98500.31
2023-03-13T22:54:06.733Z,98483.09
2023-03-13T22:56:51.993Z,98499.81
2023-03-13T22:59:37.159Z,98483.94
2023-03-13T23:02:22.366Z,98481.78
2023-03-13T23:05:07.763Z,98499.16
2023-03-13T23:07:53.198Z,98508.81
2023-03-13T23:10:38.458Z,98509.63
2023-03-13T23:13:23.701Z,98511.44
2023-03-13T23:16:11.681Z,98506.03
2023-03-13T23:18:56.959Z,98505.38
2023-03-13T23:21:42.198Z,98501.78
2023-03-13T23:24:27.280Z,98498.34
2023-03-13T23:27:12.548Z,98497.34
2023-03-13T23:29:57.634Z,98492.13
2023-03-13T23:32:45.104Z,98505.06
2023-03-13T23:35:30.401Z,98493.44
2023-03-13T23:38:18.448Z,98493.25
2023-03-13T23:41:12.724Z,98508.34
2023-03-13T23:43:58.443Z,98487.66
2023-03-13T23:46:43.536Z,98493.25
2023-03-13T23:49:28.708Z,98501.47
2023-03-13T23:52:14.544Z,98497.22
2023-03-13T23:55:00.598Z,98494.59
2023-03-13T23:57:50.065Z,98481.84
